createdAt,value
2023-08-09T00:00:23.465Z,97473.91
2023-08-09T00:02:51.338Z,97471.47
2023-08-09T00:05:19.881Z,97478.41
2023-08-09T00:07:49.032Z,97473.22
2023-08-09T00:10:16.884Z,97466.56
2023-08-09T00:12:44.743Z,97464.09
2023-08-09T00:15:12.695Z,97478.53
2023-08-09T00:17:40.540Z,97490.41
2023-08-09T00:20:09.482Z,97496.25
2023-08-09T00:22:37.387Z,97505.69
2023-08-09T00:25:07.768Z,97508.25
2023-08-09T00:27:35.608Z,97512.59
2023-08-09T00:30:03.461Z,97511.78
2023-08-09T00:32:33.179Z,97508.38
2023-08-09T00:35:01.609Z,97511.09
2023-08-09T00:37:29.453Z,97510.28
2023-08-09T00:39:57.711Z,97511.91
2023-08-09T00:42:28.201Z,97523.09
2023-08-09T00:44:56.045Z,97528.97
2023-08-09T00:47:23.882Z,97537.66
2023-08-09T00:49:53.854Z,97530.03
2023-08-09T00:52:22.182Z,97532.63
2023-08-09T00:54:50.610Z,97538.63
2023-08-09T00:57:18.457Z,97537.66
2023-08-09T00:59:47.751Z,97543.66
2023-08-09T01:02:15.764Z,97558.28
2023-08-09T01:04:44.899Z,97563.31
2023-08-09T01:07:18.972Z,97566.72
2023-08-09T01:09:52.921Z,97572.84
2023-08-09T01:12:27.274Z,97572.84
2023-08-09T01:15:00.638Z,97572.03
2023-08-09T01:17:30.111Z,97569.56
2023-08-09T01:20:00.004Z,97578.84
2023-08-09T01:22:30.516Z,97583.22
2023-08-09T01:25:04.311Z,97590.84
2023-08-09T01:27:32.530Z,97592.59
2023-08-09T01:30:01.455Z,97591.78
2023-08-09T01:32:31.371Z,97590.97
2023-08-09T01:35:01.088Z,97585.78
2023-08-09T01:37:35.198Z,97590.97
2023-08-09T01:40:09.357Z,97585.09
2023-08-09T01:42:38.206Z,97587.81
2023-08-09T01:45:07.736Z,97580.19
2023-08-09T01:47:36.625Z,97575.97
2023-08-09T01:50:05.888Z,97570.09
2023-08-09T01:52:34.349Z,97572.69
2023-08-09T01:55:02.180Z,97566.81
2023-08-09T01:57:31.390Z,97564.31
2023-08-09T02:00:00.243Z,97565.28
2023-08-09T02:02:28.325Z,97561.88
2023-08-09T02:04:56.905Z,97573.03
2023-08-09T02:07:24.762Z,97566.91
2023-08-09T02:09:52.593Z,97568.81
2023-08-09T02:12:20.508Z,97557.78
2023-08-09T02:14:49.632Z,97557.06
2023-08-09T02:17:17.506Z,97545.09
2023-08-09T02:19:45.424Z,97534.31
2023-08-09T02:22:13.231Z,97517.41
2023-08-09T02:24:41.072Z,97526.00
2023-08-09T02:27:09.513Z,97522.72
2023-08-09T02:29:37.514Z,97512.53
2023-08-09T02:32:07.794Z,97506.63
2023-08-09T02:34:35.656Z,97492.34
2023-08-09T02:37:03.764Z,97497.53
2023-08-09T02:39:33.094Z,97508.53
2023-08-09T02:42:01.569Z,97511.13
2023-08-09T02:44:30.808Z,97515.34
2023-08-09T02:46:58.791Z,97513.72
2023-08-09T02:49:28.024Z,97517.13
2023-08-09T02:51:55.841Z,97510.44
2023-08-09T02:54:24.087Z,97503.66
2023-08-09T02:56:51.888Z,97502.94
2023-08-09T02:59:19.761Z,97484.16
2023-08-09T03:01:47.704Z,97479.25
2023-08-09T03:04:15.849Z,97473.38
2023-08-09T03:06:45.053Z,97469.28
2023-08-09T03:09:13.067Z,97456.50
2023-08-09T03:11:40.911Z,97458.25
2023-08-09T03:14:08.809Z,97451.69
2023-08-09T03:16:36.771Z,97436.31
2023-08-09T03:19:05.002Z,97434.81
2023-08-09T03:21:33.295Z,97433.16
2023-08-09T03:24:02.744Z,97426.34
2023-08-09T03:26:31.055Z,97440.00
2023-08-09T03:29:01.637Z,97445.03
2023-08-09T03:31:29.544Z,97445.84
2023-08-09T03:34:00.256Z,97445.16
2023-08-09T03:36:28.167Z,97449.38
2023-08-09T03:38:56.051Z,97450.34
2023-08-09T03:41:26.268Z,97460.56
2023-08-09T03:43:54.156Z,97463.94
2023-08-09T03:46:22.040Z,97457.97
2023-08-09T03:48:50.051Z,97447.88
2023-08-09T03:51:18.642Z,97425.81
2023-08-09T03:53:48.039Z,97436.16
2023-08-09T03:56:15.879Z,97433.72
2023-08-09T03:58:45.112Z,97433.72
2023-08-09T04:01:13.748Z,97427.59
2023-08-09T04:03:41.901Z,97426.06
2023-08-09T04:06:10.412Z,97433.81
2023-08-09T04:08:38.324Z,97432.06
2023-08-09T04:11:06.368Z,97416.00
2023-08-09T04:13:34.407Z,97403.44
2023-08-09T04:16:03.583Z,97389.16
2023-08-09T04:18:31.508Z,97383.31
2023-08-09T04:20:59.313Z,97371.44
2023-08-09T04:23:27.136Z,97360.56
2023-08-09T04:25:55.650Z,97342.03
2023-08-09T04:28:23.586Z,97332.78
2023-08-09T04:30:51.504Z,97318.47
2023-08-09T04:33:20.685Z,97299.84
2023-08-09T04:35:48.561Z,97287.31
2023-08-09T04:38:16.460Z,97277.38
2023-08-09T04:40:44.355Z,97245.00
2023-08-09T04:43:12.411Z,97239.28
2023-08-09T04:45:40.368Z,97218.22
2023-08-09T04:48:08.589Z,97212.34
2023-08-09T04:50:37.825Z,97191.28
2023-08-09T04:53:05.627Z,97177.78
2023-08-09T04:55:33.457Z,97182.94
2023-08-09T04:58:01.269Z,97199.84
2023-08-09T05:00:29.900Z,97209.88
2023-08-09T05:02:57.825Z,97232.75
2023-08-09T05:05:25.724Z,97248.78
2023-08-09T05:07:54.899Z,97265.81
2023-08-09T05:10:22.706Z,97264.03
2023-08-09T05:12:50.599Z,97263.22
2023-08-09T05:15:18.580Z,97249.59
2023-08-09T05:17:46.416Z,97259.13
2023-08-09T05:20:14.656Z,97246.47
2023-08-09T05:22:42.529Z,97238.16
2023-08-09T05:25:12.270Z,97218.44
2023-08-09T05:27:40.341Z,97221.16
2023-08-09T05:30:09.630Z,97220.34
2023-08-09T05:32:37.483Z,97225.38
2023-08-09T05:35:06.250Z,97244.03
2023-08-09T05:37:34.172Z,97265.25
2023-08-09T05:40:02.012Z,97271.22
2023-08-09T05:42:31.210Z,97270.28
2023-08-09T05:45:00.384Z,97268.66
2023-08-09T05:47:28.383Z,97278.84
2023-08-09T05:49:56.465Z,97279.66
2023-08-09T05:52:24.396Z,97292.34
2023-08-09T05:54:52.263Z,97307.56
2023-08-09T05:57:20.121Z,97324.44
2023-08-09T05:59:49.282Z,97331.94
2023-08-09T06:02:17.209Z,97340.50
2023-08-09T06:04:45.414Z,97323.63
2023-08-09T06:07:14.681Z,97329.63
2023-08-09T06:09:42.569Z,97325.25
2023-08-09T06:12:10.392Z,97326.09
2023-08-09T06:14:38.250Z,97325.41
2023-08-09T06:17:07.573Z,97320.34
2023-08-09T06:19:35.628Z,97320.34
2023-08-09T06:22:03.479Z,97326.34
2023-08-09T06:24:31.285Z,97331.38
2023-08-09T06:26:59.142Z,97317.22
2023-08-09T06:29:27.125Z,97320.47
2023-08-09T06:31:54.995Z,97311.38
2023-08-09T06:34:24.135Z,97312.19
2023-08-09T06:36:52.000Z,97337.63
2023-08-09T06:39:20.419Z,97338.31
2023-08-09T06:41:48.283Z,97342.53
2023-08-09T06:44:17.395Z,97365.38
2023-08-09T06:46:45.474Z,97375.47
2023-08-09T06:49:13.783Z,97400.00
2023-08-09T06:51:43.686Z,97400.09
2023-08-09T06:54:11.542Z,97414.56
2023-08-09T06:56:41.608Z,97445.75
2023-08-09T06:59:09.468Z,97489.59
2023-08-09T07:01:37.772Z,97528.59
2023-08-09T07:04:06.216Z,97513.31
2023-08-09T07:06:34.047Z,97525.28
2023-08-09T07:09:03.756Z,97512.34
2023-08-09T07:11:31.665Z,97509.22
2023-08-09T07:13:59.557Z,97489.72
2023-08-09T07:16:27.564Z,97509.34
2023-08-09T07:18:57.715Z,97524.31
2023-08-09T07:21:29.087Z,97549.69
2023-08-09T07:23:58.509Z,97548.03
2023-08-09T07:26:28.498Z,97603.13
2023-08-09T07:28:56.345Z,97614.16
2023-08-09T07:31:26.232Z,97628.47
2023-08-09T07:33:54.364Z,97636.09
2023-08-09T07:36:22.260Z,97664.06
2023-08-09T07:38:50.168Z,97676.59
2023-08-09T07:41:17.996Z,97692.69
2023-08-09T07:43:47.203Z,97692.81
2023-08-09T07:46:15.156Z,97709.72
2023-08-09T07:48:43.080Z,97719.13
2023-08-09T07:51:13.326Z,97742.75
2023-08-09T07:53:43.236Z,97775.75
2023-08-09T07:56:12.620Z,97780.13
2023-08-09T07:58:40.523Z,97810.44
2023-08-09T08:01:09.747Z,97810.56
2023-08-09T08:03:37.704Z,97805.41
2023-08-09T08:06:06.195Z,97814.56
2023-08-09T08:08:34.149Z,97854.41
2023-08-09T08:11:02.154Z,97858.66
2023-08-09T08:13:30.309Z,97885.00
2023-08-09T08:15:58.216Z,97940.81
2023-08-09T08:18:28.364Z,98001.78
2023-08-09T08:20:56.610Z,98072.13
2023-08-09T08:23:24.430Z,98095.91
2023-08-09T08:25:52.316Z,98081.44
2023-08-09T08:28:20.202Z,98077.06
2023-08-09T08:30:48.858Z,98124.75
2023-08-09T08:33:18.428Z,98178.06
2023-08-09T08:35:55.671Z,98234.16
2023-08-09T08:38:27.841Z,98288.34
2023-08-09T08:40:56.560Z,98329.16
2023-08-09T08:43:25.100Z,98344.50
2023-08-09T08:45:54.516Z,98324.91
2023-08-09T08:48:22.493Z,98374.16
2023-08-09T08:50:52.521Z,98415.81
2023-08-09T08:53:21.468Z,98442.13
2023-08-09T08:55:49.570Z,98460.63
2023-08-09T08:58:17.764Z,98472.66
2023-08-09T09:00:45.607Z,98531.28
2023-08-09T09:03:13.573Z,98584.84
2023-08-09T09:05:41.489Z,98630.66
2023-08-09T09:08:14.317Z,98689.47
2023-08-09T09:10:46.124Z,98731.84
2023-08-09T09:13:25.604Z,98746.28
2023-08-09T09:15:55.577Z,98781.38
2023-08-09T09:18:24.387Z,98790.59
2023-08-09T09:20:52.820Z,98826.28
2023-08-09T09:23:29.610Z,98885.16
2023-08-09T09:26:05.314Z,98936.13
2023-08-09T09:28:39.756Z,98920.75
2023-08-09T09:31:08.132Z,98901.97
2023-08-09T09:33:36.939Z,98873.81
2023-08-09T09:36:06.361Z,98828.78
2023-08-09T09:38:35.763Z,98782.69
2023-08-09T09:41:03.687Z,98810.81
2023-08-09T09:43:39.662Z,98881.41
2023-08-09T09:46:29.896Z,98968.28
2023-08-09T09:49:06.400Z,99066.38
2023-08-09T09:51:37.189Z,99131.03
2023-08-09T09:54:07.794Z,99212.81
2023-08-09T09:56:37.157Z,99276.81
2023-08-09T09:59:05.640Z,99316.88
2023-08-09T10:01:34.623Z,99380.19
2023-08-09T10:04:08.879Z,99403.97
2023-08-09T10:06:40.757Z,99428.78
2023-08-09T10:09:11.084Z,99402.31
2023-08-09T10:11:39.212Z,99362.16
2023-08-09T10:14:10.162Z,99362.03
2023-08-09T10:16:40.229Z,99392.72
2023-08-09T10:19:12.998Z,99450.00
2023-08-09T10:21:42.508Z,99506.34
2023-08-09T10:24:14.313Z,99540.53
2023-08-09T10:26:45.718Z,99579.78
2023-08-09T10:29:16.588Z,99576.34
2023-08-09T10:31:51.233Z,99607.00
2023-08-09T10:34:20.241Z,99595.13
2023-08-09T10:36:54.323Z,99652.25
2023-08-09T10:39:25.455Z,99680.50
2023-08-09T10:41:58.089Z,99707.00
2023-08-09T10:44:36.392Z,99736.94
2023-08-09T10:47:06.360Z,99774.59
2023-08-09T10:49:36.004Z,99811.28
2023-08-09T10:52:17.464Z,99850.66
2023-08-09T10:54:48.206Z,99881.31
2023-08-09T10:57:17.297Z,99945.63
2023-08-09T10:59:47.481Z,99961.09
2023-08-09T11:02:18.131Z,99975.63
2023-08-09T11:04:46.379Z,99976.34
2023-08-09T11:07:21.489Z,100012.25
2023-08-09T11:09:50.683Z,100064.53
2023-08-09T11:12:18.564Z,100108.09
2023-08-09T11:14:46.928Z,100138.09
2023-08-09T11:17:15.095Z,100096.81
2023-08-09T11:19:43.010Z,100032.56
2023-08-09T11:22:12.305Z,100023.03
2023-08-09T11:24:40.163Z,100041.84
2023-08-09T11:27:09.615Z,100101.81
2023-08-09T11:29:39.520Z,100152.41
2023-08-09T11:32:07.919Z,100204.59
2023-08-09T11:34:35.758Z,100221.63
2023-08-09T11:37:03.961Z,100247.34
2023-08-09T11:39:31.818Z,100289.41
2023-08-09T11:41:59.708Z,100312.50
2023-08-09T11:44:31.777Z,100364.75
2023-08-09T11:47:02.130Z,100329.47
2023-08-09T11:49:31.267Z,100322.69
2023-08-09T11:52:01.506Z,100342.28
2023-08-09T11:54:30.473Z,100325.91
2023-08-09T11:56:59.692Z,100326.78
2023-08-09T11:59:29.344Z,100317.13
2023-08-09T12:01:58.833Z,100310.22
2023-08-09T12:04:30.611Z,100338.59
2023-08-09T12:07:00.530Z,100378.81
2023-08-09T12:09:33.160Z,100420.88
2023-08-09T12:12:07.336Z,100373.56
2023-08-09T12:14:37.804Z,100293.59
2023-08-09T12:17:06.220Z,100279.75
2023-08-09T12:19:34.796Z,100290.88
2023-08-09T12:22:05.040Z,100341.44
2023-08-09T12:24:33.224Z,100368.88
2023-08-09T12:27:01.498Z,100410.00
2023-08-09T12:29:29.323Z,100468.53
2023-08-09T12:32:00.540Z,100474.28
2023-08-09T12:34:29.329Z,100542.16
2023-08-09T12:36:57.374Z,100618.66
2023-08-09T12:39:25.380Z,100645.22
2023-08-09T12:41:54.011Z,100625.34
2023-08-09T12:44:21.875Z,100558.22
2023-08-09T12:46:50.138Z,100604.50
2023-08-09T12:49:19.388Z,100641.53
2023-08-09T12:51:47.551Z,100629.28
2023-08-09T12:54:15.521Z,100606.94
2023-08-09T12:56:43.446Z,100647.31
2023-08-09T12:59:11.374Z,100645.44
2023-08-09T13:01:39.330Z,100684.13
2023-08-09T13:04:08.093Z,100740.97
2023-08-09T13:06:37.296Z,100784.59
2023-08-09T13:09:10.282Z,100810.41
2023-08-09T13:11:38.387Z,100841.28
2023-08-09T13:14:06.535Z,100895.53
2023-08-09T13:16:34.640Z,100920.53
2023-08-09T13:19:02.565Z,100943.56
2023-08-09T13:21:30.481Z,100982.19
2023-08-09T13:23:59.685Z,101047.75
2023-08-09T13:26:27.607Z,101079.50
2023-08-09T13:28:55.477Z,100972.47
2023-08-09T13:31:23.648Z,100884.53
2023-08-09T13:33:51.537Z,100722.63
2023-08-09T13:36:19.407Z,100633.81
2023-08-09T13:38:47.348Z,100681.09
2023-08-09T13:41:16.610Z,100722.31
2023-08-09T13:43:44.692Z,100799.72
2023-08-09T13:46:12.609Z,100855.56
2023-08-09T13:48:40.520Z,100945.06
2023-08-09T13:51:08.363Z,100859.78
2023-08-09T13:53:36.283Z,100781.25
2023-08-09T13:56:04.213Z,100728.72
2023-08-09T13:58:33.438Z,100624.34
2023-08-09T14:01:01.301Z,100642.41
2023-08-09T14:03:30.074Z,100735.31
2023-08-09T14:05:58.020Z,100747.25
2023-08-09T14:08:25.873Z,100824.66
2023-08-09T14:10:53.677Z,100920.28
2023-08-09T14:13:21.793Z,101049.38
2023-08-09T14:15:52.556Z,101001.91
2023-08-09T14:18:22.721Z,100919.88
2023-08-09T14:20:50.719Z,100858.66
2023-08-09T14:23:18.864Z,100726.09
2023-08-09T14:25:46.701Z,100702.69
2023-08-09T14:28:14.647Z,100614.06
2023-08-09T14:30:42.522Z,100582.09
2023-08-09T14:33:13.348Z,100619.81
2023-08-09T14:35:41.391Z,100704.16
2023-08-09T14:38:09.386Z,100803.75
2023-08-09T14:40:37.303Z,100922.72
2023-08-09T14:43:05.579Z,100900.13
2023-08-09T14:45:33.615Z,100906.94
2023-08-09T14:48:01.619Z,100931.00
2023-08-09T14:50:30.866Z,100961.03
2023-08-09T14:52:58.747Z,101018.63
2023-08-09T14:55:26.694Z,100949.69
2023-08-09T14:57:54.559Z,100995.38
2023-08-09T15:00:22.827Z,100928.88
2023-08-09T15:02:51.095Z,100944.34
2023-08-09T15:05:19.102Z,100957.28
2023-08-09T15:07:48.403Z,101038.19
2023-08-09T15:10:16.319Z,101144.91
2023-08-09T15:12:44.191Z,101240.72
2023-08-09T15:15:12.456Z,101346.91
2023-08-09T15:17:40.456Z,101433.16
2023-08-09T15:20:12.282Z,101485.72
2023-08-09T15:22:40.396Z,101517.75
2023-08-09T15:25:20.023Z,101521.91
2023-08-09T15:27:48.481Z,101559.94
2023-08-09T15:30:17.404Z,101475.88
2023-08-09T15:32:46.076Z,101461.19
2023-08-09T15:35:14.479Z,101512.94
2023-08-09T15:37:42.930Z,101595.88
2023-08-09T15:40:13.282Z,101582.81
2023-08-09T15:42:42.886Z,101581.78
2023-08-09T15:45:11.682Z,101573.97
2023-08-09T15:47:39.890Z,101368.16
2023-08-09T15:50:09.179Z,101356.84
2023-08-09T15:52:37.027Z,101342.97
2023-08-09T15:55:05.375Z,101279.91
2023-08-09T15:57:33.278Z,101277.28
2023-08-09T16:00:03.822Z,101253.72
2023-08-09T16:02:34.403Z,101181.22
2023-08-09T16:05:02.396Z,100999.09
2023-08-09T16:07:30.218Z,100937.94
2023-08-09T16:09:58.075Z,100907.59
2023-08-09T16:12:25.879Z,100797.16
2023-08-09T16:14:53.773Z,100676.66
2023-08-09T16:17:23.732Z,100624.97
2023-08-09T16:19:52.452Z,100611.13
2023-08-09T16:22:24.456Z,100607.66
2023-08-09T16:24:52.360Z,100614.47
2023-08-09T16:27:20.203Z,100612.56
2023-08-09T16:29:48.073Z,100616.84
2023-08-09T16:32:15.974Z,100599.56
2023-08-09T16:34:45.360Z,100581.50
2023-08-09T16:37:13.188Z,100552.28
2023-08-09T16:39:41.042Z,100502.25
2023-08-09T16:42:09.046Z,100481.66
2023-08-09T16:44:36.877Z,100424.75
2023-08-09T16:47:05.087Z,100368.19
2023-08-09T16:49:33.213Z,100332.06
2023-08-09T16:52:02.834Z,100247.75
2023-08-09T16:54:30.694Z,100182.44
2023-08-09T16:56:58.559Z,100127.50
2023-08-09T16:59:26.364Z,100047.78
2023-08-09T17:01:54.266Z,99980.88
2023-08-09T17:04:22.096Z,99918.13
2023-08-09T17:06:50.307Z,99889.09
2023-08-09T17:09:19.525Z,99846.28
2023-08-09T17:11:47.367Z,99814.66
2023-08-09T17:14:15.244Z,99752.69
2023-08-09T17:16:43.152Z,99723.75
2023-08-09T17:19:11.104Z,99678.25
2023-08-09T17:21:39.008Z,99646.50
2023-08-09T17:24:07.689Z,99626.06
2023-08-09T17:26:36.912Z,99590.88
2023-08-09T17:29:04.856Z,99552.50
2023-08-09T17:31:32.731Z,99520.69
2023-08-09T17:34:00.675Z,99507.03
2023-08-09T17:36:28.557Z,99496.94
2023-08-09T17:38:56.382Z,99472.00
2023-08-09T17:41:24.388Z,99443.75
2023-08-09T17:43:53.567Z,99423.31
2023-08-09T17:46:23.186Z,99393.41
2023-08-09T17:48:53.062Z,99380.59
2023-08-09T17:51:21.885Z,99361.75
2023-08-09T17:53:49.817Z,99327.53
2023-08-09T17:56:17.805Z,99276.44
2023-08-09T17:58:45.699Z,99238.94
2023-08-09T18:01:14.944Z,99187.63
2023-08-09T18:03:42.812Z,99173.97
2023-08-09T18:06:10.728Z,99164.63
2023-08-09T18:08:38.586Z,99161.31
2023-08-09T18:11:06.573Z,99153.50
2023-08-09T18:13:34.366Z,99145.88
2023-08-09T18:16:02.329Z,99133.09
2023-08-09T18:18:31.497Z,99119.38
2023-08-09T18:20:59.403Z,99089.50
2023-08-09T18:23:27.471Z,99060.47
2023-08-09T18:25:55.336Z,99033.25
2023-08-09T18:28:23.226Z,98975.19
2023-08-09T18:30:51.219Z,98947.13
2023-08-09T18:33:19.062Z,98918.94
2023-08-09T18:35:48.263Z,98903.78
2023-08-09T18:38:16.120Z,98878.94
2023-08-09T18:40:43.980Z,98844.28
2023-08-09T18:43:12.278Z,98799.94
2023-08-09T18:45:40.166Z,98758.16
2023-08-09T18:48:09.064Z,98703.75
2023-08-09T18:50:36.950Z,98655.47
2023-08-09T18:53:06.230Z,98602.47
2023-08-09T18:55:34.487Z,98571.19
2023-08-09T18:58:02.323Z,98526.16
2023-08-09T19:00:32.175Z,98487.09
2023-08-09T19:03:00.051Z,98451.53
2023-08-09T19:05:27.937Z,98402.22
2023-08-09T19:07:55.894Z,98375.06
2023-08-09T19:10:25.112Z,98356.44
2023-08-09T19:12:53.174Z,98324.09
2023-08-09T19:15:22.110Z,98295.47
2023-08-09T19:17:50.113Z,98249.59
2023-08-09T19:20:18.364Z,98194.41
2023-08-09T19:22:46.208Z,98157.28
2023-08-09T19:25:16.317Z,98117.44
2023-08-09T19:27:45.588Z,98061.34
2023-08-09T19:30:14.814Z,98027.72
2023-08-09T19:32:42.839Z,97992.94
2023-08-09T19:35:11.279Z,97965.06
2023-08-09T19:37:39.149Z,97933.59
2023-08-09T19:40:08.729Z,97907.50
2023-08-09T19:42:37.695Z,97879.63
2023-08-09T19:45:09.655Z,97849.97
2023-08-09T19:47:37.579Z,97820.47
2023-08-09T19:50:06.270Z,97794.22
2023-08-09T19:52:34.693Z,97766.38
2023-08-09T19:55:02.568Z,97740.28
2023-08-09T19:57:30.448Z,97705.59
2023-08-09T19:59:58.620Z,97671.72
2023-08-09T20:02:28.160Z,97645.53
2023-08-09T20:04:56.165Z,97638.16
2023-08-09T20:07:24.019Z,97620.28
2023-08-09T20:09:51.858Z,97601.72
2023-08-09T20:12:19.676Z,97580.84
2023-08-09T20:14:47.539Z,97550.44
2023-08-09T20:17:15.499Z,97537.75
2023-08-09T20:19:44.726Z,97521.66
2023-08-09T20:22:12.564Z,97526.00
2023-08-09T20:24:42.472Z,97506.53
2023-08-09T20:27:11.553Z,97493.97
2023-08-09T20:29:40.055Z,97484.00
2023-08-09T20:32:08.346Z,97468.63
2023-08-09T20:34:36.915Z,97462.06
2023-08-09T20:37:06.372Z,97439.31
2023-08-09T20:39:34.453Z,97436.84
2023-08-09T20:42:02.348Z,97426.78
2023-08-09T20:44:36.061Z,97415.75
2023-08-09T20:47:04.629Z,97413.28
2023-08-09T20:49:32.883Z,97409.03
2023-08-09T20:52:03.437Z,97410.81
2023-08-09T20:54:32.799Z,97416.00
2023-08-09T20:57:01.073Z,97413.56
2023-08-09T20:59:31.781Z,97408.38
2023-08-09T21:01:59.727Z,97427.31
2023-08-09T21:04:27.723Z,97438.22
2023-08-09T21:06:55.578Z,97431.41
2023-08-09T21:09:23.743Z,97433.06
2023-08-09T21:11:52.971Z,97431.41
2023-08-09T21:14:21.433Z,97444.38
2023-08-09T21:16:49.216Z,97444.38
2023-08-09T21:19:18.168Z,97457.19
2023-08-09T21:21:46.066Z,97456.22
2023-08-09T21:26:50.616Z,97458.13
2023-08-09T21:29:22.294Z,97455.66
2023-08-09T21:31:50.569Z,97437.81
2023-08-09T21:34:18.627Z,97433.75
2023-08-09T21:36:46.772Z,97424.75
2023-08-09T21:39:14.744Z,97408.53
2023-08-09T21:41:42.671Z,97395.84
2023-08-09T21:44:11.084Z,97395.16
2023-08-09T21:46:40.353Z,97392.00
2023-08-09T21:49:08.271Z,97382.63
2023-08-09T21:51:36.138Z,97378.25
2023-08-09T21:54:04.133Z,97380.19
2023-08-09T21:56:31.997Z,97367.50
2023-08-09T21:58:59.860Z,97354.00
2023-08-09T22:01:28.931Z,97355.78
2023-08-09T22:06:36.650Z,97364.38
2023-08-09T22:09:06.302Z,97363.56
2023-08-09T22:11:34.311Z,97377.16
2023-08-09T22:14:02.154Z,97390.81
2023-08-09T22:16:30.109Z,97388.22
2023-08-09T22:18:57.971Z,97397.63
2023-08-09T22:21:25.876Z,97407.84
2023-08-09T22:23:55.023Z,97413.69
2023-08-09T22:26:22.982Z,97414.50
2023-08-09T22:28:50.886Z,97418.88
2023-08-09T22:31:18.792Z,97422.28
2023-08-09T22:33:46.664Z,97439.47
2023-08-09T22:36:14.638Z,97446.00
2023-08-09T22:41:11.696Z,97469.00
2023-08-09T22:43:39.519Z,97478.31
2023-08-09T22:46:07.472Z,97486.06
2023-08-09T22:48:35.378Z,97485.25
2023-08-09T22:51:03.455Z,97483.47
2023-08-09T22:53:31.314Z,97480.22
2023-08-09T22:55:59.972Z,97478.56
2023-08-09T22:58:29.198Z,97475.28
2023-08-09T23:00:57.064Z,97466.84
2023-08-09T23:03:25.036Z,97460.19
2023-08-09T23:05:52.971Z,97447.47
2023-08-09T23:08:20.876Z,97429.66
2023-08-09T23:10:48.825Z,97424.03
2023-08-09T23:13:16.679Z,97396.94
2023-08-09T23:15:46.285Z,97381.78
2023-08-09T23:18:14.623Z,97353.03
2023-08-09T23:20:42.652Z,97345.81
2023-08-09T23:23:11.484Z,97323.75
2023-08-09T23:25:39.335Z,97304.44
2023-08-09T23:28:08.263Z,97292.72
2023-08-09T23:30:36.220Z,97282.66
2023-08-09T23:33:06.270Z,97251.44
2023-08-09T23:35:34.576Z,97223.69
2023-08-09T23:38:02.644Z,97204.38
2023-08-09T23:40:30.523Z,97173.06
2023-08-09T23:42:58.371Z,97154.72
2023-08-09T23:45:26.296Z,97150.75
2023-08-09T23:47:54.223Z,97126.97
2023-08-09T23:50:24.280Z,97111.03
2023-08-09T23:52:52.364Z,97106.16
2023-08-09T23:55:20.204Z,97089.13
2023-08-09T23:57:48.049Z,97085.22
